createdAt,value
2019-03-01T00:00:37.086Z,10.22
2019-03-01T00:01:36.990Z,10.16
2019-03-01T00:02:36.931Z,10.18
2019-03-01T00:03:36.829Z,10.02
2019-03-01T00:04:36.741Z,10.13
2019-03-01T00:05:36.745Z,10.07
2019-03-01T00:06:36.592Z,10.14
2019-03-01T00:07:36.501Z,10.09
2019-03-01T00:08:36.561Z,10.01
2019-03-01T00:09:36.323Z,10.14
2019-03-01T00:10:36.238Z,10.14
2019-03-01T00:11:36.205Z,10.16
2019-03-01T00:12:36.072Z,10.13
2019-03-01T00:13:36.183Z,10.20
2019-03-01T00:14:35.907Z,10.16
2019-03-01T00:15:36.198Z,10.13
2019-03-01T00:16:35.754Z,10.17
2019-03-01T00:17:35.823Z,10.09
2019-03-01T00:18:35.600Z,10.20
2019-03-01T00:19:35.610Z,10.13
2019-03-01T00:20:35.812Z,10.18
2019-03-01T00:21:35.447Z,10.16
2019-03-01T00:22:35.235Z,10.18
2019-03-01T00:23:35.227Z,10.14
2019-03-01T00:24:35.073Z,10.16
2019-03-01T00:25:35.036Z,10.14
2019-03-01T00:26:34.924Z,10.16
2019-03-01T00:27:34.846Z,10.14
2019-03-01T00:28:34.735Z,10.20
2019-03-01T00:29:34.858Z,10.20
2019-03-01T00:30:34.575Z,10.22
2019-03-01T00:31:34.697Z,10.26
2019-03-01T00:32:34.398Z,10.25
2019-03-01T00:33:34.474Z,10.32
2019-03-01T00:34:34.231Z,10.32
2019-03-01T00:35:34.281Z,10.25
2019-03-01T00:36:34.078Z,10.26
2019-03-01T00:37:34.090Z,10.22
2019-03-01T00:38:33.901Z,10.28
2019-03-01T00:39:33.899Z,10.34
2019-03-01T00:40:33.728Z,10.34
2019-03-01T00:41:33.738Z,10.26
2019-03-01T00:42:33.562Z,10.26
2019-03-01T00:43:33.479Z,10.29
2019-03-01T00:44:33.523Z,10.24
2019-03-01T00:45:33.313Z,10.22
2019-03-01T00:46:33.244Z,10.22
2019-03-01T00:47:33.340Z,10.28
2019-03-01T00:48:33.060Z,10.24
2019-03-01T00:49:32.976Z,10.24
2019-03-01T00:50:32.947Z,10.24
2019-03-01T00:51:32.824Z,10.24
2019-03-01T00:52:32.734Z,10.22
2019-03-01T00:53:32.766Z,10.22
2019-03-01T00:54:32.558Z,10.20
2019-03-01T00:55:32.474Z,10.24
2019-03-01T00:56:32.609Z,10.25
2019-03-01T00:57:32.306Z,10.24
2019-03-01T00:58:32.224Z,10.26
2019-03-01T00:59:32.191Z,10.26
2019-03-01T01:00:32.054Z,10.31
2019-03-01T01:01:31.985Z,10.28
2019-03-01T01:02:32.005Z,10.28
2019-03-01T01:03:31.804Z,10.26
2019-03-01T01:04:31.724Z,10.25
2019-03-01T01:05:31.818Z,10.28
2019-03-01T01:06:31.571Z,10.24
2019-03-01T01:07:31.468Z,10.31
2019-03-01T01:08:31.428Z,10.34
2019-03-01T01:09:31.298Z,10.34
2019-03-01T01:10:31.222Z,10.28
2019-03-01T01:11:31.273Z,10.24
2019-03-01T01:12:31.050Z,10.26
2019-03-01T01:13:30.967Z,10.24
2019-03-01T01:14:31.058Z,10.28
2019-03-01T01:15:30.805Z,10.25
2019-03-01T01:16:30.728Z,10.20
2019-03-01T01:17:30.669Z,10.25
2019-03-01T01:18:30.553Z,10.29
2019-03-01T01:19:30.685Z,10.29
2019-03-01T01:20:30.383Z,10.25
2019-03-01T01:21:30.521Z,10.26
2019-03-01T01:22:30.214Z,10.25
2019-03-01T01:23:30.130Z,10.34
2019-03-01T01:24:30.101Z,10.20
2019-03-01T01:25:29.966Z,10.26
2019-03-01T01:26:30.061Z,10.26
2019-03-01T01:27:29.919Z,10.32
2019-03-01T01:28:29.719Z,10.26
2019-03-01T01:29:29.724Z,10.32
2019-03-01T01:30:29.546Z,10.24
2019-03-01T01:31:29.534Z,10.22
2019-03-01T01:32:29.393Z,10.28
2019-03-01T01:33:29.292Z,10.36
2019-03-01T01:34:29.349Z,10.31
2019-03-01T01:35:29.126Z,10.43
2019-03-01T01:36:29.050Z,10.43
2019-03-01T01:37:28.994Z,10.35
2019-03-01T01:38:28.880Z,10.39
2019-03-01T01:39:28.971Z,10.38
2019-03-01T01:40:28.707Z,10.43
2019-03-01T01:41:28.779Z,10.36
2019-03-01T01:42:28.552Z,10.36
2019-03-01T01:43:28.459Z,10.42
2019-03-01T01:44:28.391Z,10.28
2019-03-01T01:45:28.289Z,10.36
2019-03-01T01:46:28.210Z,10.25
2019-03-01T01:47:28.237Z,10.26
2019-03-01T01:48:28.049Z,10.28
2019-03-01T01:49:28.014Z,10.24
2019-03-01T01:50:27.872Z,10.20
2019-03-01T01:51:27.821Z,10.31
2019-03-01T01:52:27.720Z,10.22
2019-03-01T01:53:27.836Z,10.24
2019-03-01T01:54:27.537Z,10.26
2019-03-01T01:55:27.647Z,10.26
2019-03-01T01:56:27.368Z,10.20
2019-03-01T01:57:27.484Z,10.16
2019-03-01T01:58:27.201Z,10.22
2019-03-01T01:59:27.260Z,10.18
2019-03-01T02:00:27.035Z,10.28
2019-03-01T02:01:27.071Z,10.26
2019-03-01T02:02:26.886Z,10.24
2019-03-01T02:03:26.793Z,10.26
2019-03-01T02:04:26.887Z,10.24
2019-03-01T02:05:26.615Z,10.22
2019-03-01T02:06:26.534Z,10.14
2019-03-01T02:07:26.527Z,10.25
2019-03-01T02:08:26.361Z,10.16
2019-03-01T02:09:26.284Z,10.25
2019-03-01T02:10:26.309Z,10.22
2019-03-01T02:11:26.117Z,10.24
2019-03-01T02:12:26.041Z,10.26
2019-03-01T02:13:26.123Z,10.25
2019-03-01T02:14:25.869Z,10.25
2019-03-01T02:15:25.780Z,10.26
2019-03-01T02:16:25.703Z,10.26
2019-03-01T02:17:25.623Z,10.20
2019-03-01T02:18:25.529Z,10.25
2019-03-01T02:19:25.550Z,10.18
2019-03-01T02:20:25.366Z,10.20
2019-03-01T02:21:25.276Z,10.20
2019-03-01T02:22:25.395Z,10.25
2019-03-01T02:23:25.110Z,10.16
2019-03-01T02:24:25.187Z,10.25
2019-03-01T02:25:24.937Z,10.16
2019-03-01T02:26:24.981Z,10.16
2019-03-01T02:27:24.787Z,10.22
2019-03-01T02:28:24.690Z,10.22
2019-03-01T02:29:24.802Z,10.18
2019-03-01T02:30:24.525Z,10.20
2019-03-01T02:31:24.462Z,10.17
2019-03-01T02:32:24.439Z,10.14
2019-03-01T02:33:24.271Z,10.18
2019-03-01T02:34:24.196Z,10.14
2019-03-01T02:35:24.223Z,10.09
2019-03-01T02:36:24.020Z,10.14
2019-03-01T02:37:23.954Z,10.10
2019-03-01T02:38:24.040Z,10.07
2019-03-01T02:39:23.773Z,10.10
2019-03-01T02:40:23.702Z,10.17
2019-03-01T02:41:23.654Z,10.10
2019-03-01T02:42:23.534Z,10.13
2019-03-01T02:43:23.438Z,10.17
2019-03-01T02:44:23.463Z,10.06
2019-03-01T02:45:23.266Z,10.14
2019-03-01T02:46:23.183Z,10.17
2019-03-01T02:47:23.309Z,10.13
2019-03-01T02:48:23.024Z,10.09
2019-03-01T02:49:22.943Z,10.14
2019-03-01T02:50:22.887Z,10.11
2019-03-01T02:51:22.767Z,9.99
2019-03-01T02:52:22.695Z,9.99
2019-03-01T02:53:22.701Z,10.01
2019-03-01T02:54:22.520Z,9.99
2019-03-01T02:55:22.431Z,9.98
2019-03-01T02:56:22.517Z,9.95
2019-03-01T02:57:22.276Z,9.99
2019-03-01T02:58:22.179Z,9.95
2019-03-01T02:59:22.127Z,9.98
2019-03-01T03:00:22.031Z,10.02
2019-03-01T03:01:21.931Z,10.02
2019-03-01T03:02:21.978Z,9.98
2019-03-01T03:03:21.772Z,9.92
2019-03-01T03:04:21.674Z,10.01
2019-03-01T03:05:21.765Z,10.02
2019-03-01T03:06:21.511Z,9.98
2019-03-01T03:07:21.421Z,9.96
2019-03-01T03:08:21.400Z,9.98
2019-03-01T03:09:21.261Z,9.93
2019-03-01T03:10:21.173Z,9.88
2019-03-01T03:11:21.191Z,9.96
2019-03-01T03:12:21.004Z,9.91
2019-03-01T03:13:20.934Z,9.92
2019-03-01T03:14:20.998Z,9.88
2019-03-01T03:15:20.752Z,9.91
2019-03-01T03:16:20.809Z,9.81
2019-03-01T03:17:20.614Z,9.88
2019-03-01T03:18:20.651Z,9.91
2019-03-01T03:19:20.424Z,9.88
2019-03-01T03:20:20.436Z,9.95
2019-03-01T03:21:20.248Z,9.91
2019-03-01T03:22:20.232Z,9.86
2019-03-01T03:23:20.106Z,9.86
2019-03-01T03:24:20.046Z,9.83
2019-03-01T03:25:19.914Z,9.83
2019-03-01T03:26:19.849Z,9.81
2019-03-01T03:27:19.748Z,9.85
2019-03-01T03:28:19.890Z,9.80
2019-03-01T03:29:19.578Z,9.83
2019-03-01T03:30:19.723Z,9.83
2019-03-01T03:31:19.414Z,9.80
2019-03-01T03:32:19.480Z,9.78
2019-03-01T03:33:19.271Z,9.78
2019-03-01T03:34:19.171Z,9.86
2019-03-01T03:35:19.297Z,9.78
2019-03-01T03:36:18.992Z,9.86
2019-03-01T03:37:18.914Z,9.78
2019-03-01T03:38:18.937Z,9.71
2019-03-01T03:39:18.741Z,9.68
2019-03-01T03:40:18.658Z,9.74
2019-03-01T03:41:18.726Z,9.77
2019-03-01T03:42:18.489Z,9.68
2019-03-01T03:43:18.418Z,9.75
2019-03-01T03:44:18.535Z,9.77
2019-03-01T03:45:18.237Z,9.80
2019-03-01T03:46:18.361Z,9.80
2019-03-01T03:47:18.071Z,9.75
2019-03-01T03:48:18.181Z,9.65
2019-03-01T03:49:17.902Z,9.73
2019-03-01T03:50:17.817Z,9.67
2019-03-01T03:51:17.762Z,9.68
2019-03-01T03:52:17.650Z,9.70
2019-03-01T03:53:17.582Z,9.65
2019-03-01T03:54:17.579Z,9.74
2019-03-01T03:55:17.405Z,9.80
2019-03-01T03:56:17.328Z,9.71
2019-03-01T03:57:17.391Z,9.71
2019-03-01T03:58:17.161Z,9.70
2019-03-01T03:59:17.089Z,9.75
2019-03-01T04:00:17.002Z,9.80
2019-03-01T04:01:16.901Z,9.73
2019-03-01T04:02:16.812Z,9.74
2019-03-01T04:03:16.848Z,9.80
2019-03-01T04:04:16.646Z,9.67
2019-03-01T04:05:16.567Z,9.65
2019-03-01T04:06:16.631Z,9.67
2019-03-01T04:07:16.397Z,9.74
2019-03-01T04:08:16.325Z,9.68
2019-03-01T04:09:16.242Z,9.77
2019-03-01T04:10:16.144Z,9.78
2019-03-01T04:11:16.257Z,9.68
2019-03-01T04:12:15.976Z,9.73
2019-03-01T04:13:16.908Z,9.78
2019-03-01T04:14:15.812Z,9.77
2019-03-01T04:15:15.883Z,9.71
2019-03-01T04:16:15.637Z,9.71
2019-03-01T04:17:15.681Z,9.73
2019-03-01T04:18:15.488Z,9.74
2019-03-01T04:19:15.490Z,9.75
2019-03-01T04:20:15.306Z,9.73
2019-03-01T04:21:15.298Z,9.70
2019-03-01T04:22:15.144Z,9.75
2019-03-01T04:23:15.134Z,9.63
2019-03-01T04:24:14.986Z,9.75
2019-03-01T04:25:14.905Z,9.75
2019-03-01T04:26:14.920Z,9.70
2019-03-01T04:27:14.723Z,9.71
2019-03-01T04:28:14.641Z,9.67
2019-03-01T04:29:14.778Z,9.73
2019-03-01T04:30:14.467Z,9.75
2019-03-01T04:31:14.748Z,9.74
2019-03-01T04:32:14.298Z,9.80
2019-03-01T04:33:14.384Z,9.73
2019-03-01T04:34:14.140Z,9.71
2019-03-01T04:35:14.055Z,9.73
2019-03-01T04:36:14.167Z,9.74
2019-03-01T04:37:13.886Z,9.77
2019-03-01T04:38:13.802Z,9.67
2019-03-01T04:39:13.806Z,9.71
2019-03-01T04:40:13.629Z,9.67
2019-03-01T04:41:13.587Z,9.68
2019-03-01T04:42:13.465Z,9.70
2019-03-01T04:43:13.600Z,9.77
2019-03-01T04:44:13.312Z,9.67
2019-03-01T04:45:13.215Z,9.81
2019-03-01T04:46:13.210Z,9.75
2019-03-01T04:47:13.061Z,9.78
2019-03-01T04:48:12.962Z,9.74
2019-03-01T04:49:13.075Z,9.71
2019-03-01T04:50:12.790Z,9.78
2019-03-01T04:51:12.832Z,9.73
2019-03-01T04:52:12.630Z,9.71
2019-03-01T04:53:12.648Z,9.71
2019-03-01T04:54:12.473Z,9.80
2019-03-01T04:55:12.379Z,9.80
2019-03-01T04:56:12.458Z,9.73
2019-03-01T04:57:12.208Z,9.83
2019-03-01T04:58:12.122Z,9.68
2019-03-01T04:59:12.100Z,9.77
2019-03-01T05:00:11.958Z,9.75
2019-03-01T05:01:11.885Z,9.77
2019-03-01T05:02:11.881Z,9.77
2019-03-01T05:03:11.741Z,9.77
2019-03-01T05:04:12.176Z,9.65
2019-03-01T05:05:11.695Z,9.75
2019-03-01T05:06:11.455Z,9.77
2019-03-01T05:07:11.504Z,9.65
2019-03-01T05:08:11.291Z,9.74
2019-03-01T05:09:11.357Z,9.73
2019-03-01T05:10:11.136Z,9.75
2019-03-01T05:11:11.037Z,9.77
2019-03-01T05:12:11.130Z,9.78
2019-03-01T05:13:10.875Z,9.78
2019-03-01T05:14:10.799Z,9.68
2019-03-01T05:15:10.741Z,9.73
2019-03-01T05:16:10.617Z,9.71
2019-03-01T05:17:10.535Z,9.77
2019-03-01T05:18:10.554Z,9.75
2019-03-01T05:19:10.381Z,9.74
2019-03-01T05:20:10.283Z,9.77
2019-03-01T05:21:10.370Z,9.75
2019-03-01T05:22:10.117Z,9.63
2019-03-01T05:23:10.031Z,9.67
2019-03-01T05:24:10.012Z,9.75
2019-03-01T05:25:09.869Z,9.74
2019-03-01T05:26:09.782Z,9.71
2019-03-01T05:27:09.793Z,9.75
2019-03-01T05:28:09.613Z,9.78
2019-03-01T05:29:09.554Z,9.73
2019-03-01T05:30:09.608Z,9.70
2019-03-01T05:31:09.365Z,9.68
2019-03-01T05:32:09.421Z,9.71
2019-03-01T05:33:09.195Z,9.71
2019-03-01T05:34:09.255Z,9.78
2019-03-01T05:35:09.028Z,9.70
2019-03-01T05:36:08.945Z,9.73
2019-03-01T05:37:09.041Z,9.71
2019-03-01T05:38:08.776Z,9.62
2019-03-01T05:39:08.717Z,9.68
2019-03-01T05:40:08.650Z,9.70
2019-03-01T05:41:08.545Z,9.68
2019-03-01T05:42:08.446Z,9.74
2019-03-01T05:43:08.465Z,9.81
2019-03-01T05:44:08.291Z,9.78
2019-03-01T05:45:08.192Z,9.70
2019-03-01T05:46:08.280Z,9.75
2019-03-01T05:47:08.029Z,9.78
2019-03-01T05:48:07.948Z,9.71
2019-03-01T05:49:07.923Z,9.68
2019-03-01T05:50:07.775Z,9.70
2019-03-01T05:51:07.694Z,9.77
2019-03-01T05:52:07.704Z,9.80
2019-03-01T05:53:07.537Z,9.74
2019-03-01T05:54:07.544Z,9.63
2019-03-01T05:55:07.361Z,9.71
2019-03-01T05:56:07.272Z,9.68
2019-03-01T05:57:07.331Z,9.73
2019-03-01T05:58:16.043Z,9.70
2019-03-01T05:59:07.212Z,9.67
2019-03-01T06:00:07.146Z,9.73
2019-03-01T06:01:06.859Z,9.71
2019-03-01T06:02:06.971Z,9.78
2019-03-01T06:03:06.704Z,9.78
2019-03-01T06:04:06.792Z,9.75
2019-03-01T06:05:06.519Z,9.75
2019-03-01T06:06:06.435Z,9.81
2019-03-01T06:07:06.376Z,9.83
2019-03-01T06:08:06.275Z,9.80
2019-03-01T06:09:06.189Z,9.75
2019-03-01T06:10:06.220Z,9.81
2019-03-01T06:11:06.020Z,9.83
2019-03-01T06:12:05.940Z,9.81
2019-03-01T06:13:05.879Z,9.85
2019-03-01T06:14:05.768Z,9.89
2019-03-01T06:15:05.706Z,9.86
2019-03-01T06:16:05.600Z,9.83
2019-03-01T06:17:05.665Z,9.88
2019-03-01T06:18:05.434Z,9.93
2019-03-01T06:19:05.427Z,9.93
2019-03-01T06:20:05.537Z,9.86
2019-03-01T06:21:05.235Z,9.80
2019-03-01T06:22:05.138Z,9.89
2019-03-01T06:23:05.024Z,9.91
2019-03-01T06:24:04.933Z,9.88
2019-03-01T06:25:04.883Z,9.95
2019-03-01T06:26:04.766Z,9.86
2019-03-01T06:27:04.680Z,9.92
2019-03-01T06:28:04.668Z,9.81
2019-03-01T06:29:04.522Z,9.85
2019-03-01T06:30:04.447Z,9.91
2019-03-01T06:31:04.353Z,9.85
2019-03-01T06:32:04.259Z,9.93
2019-03-01T06:33:04.292Z,9.81
2019-03-01T06:34:04.094Z,9.88
2019-03-01T06:35:04.132Z,9.85
2019-03-01T06:36:03.928Z,9.83
2019-03-01T06:37:03.846Z,9.81
2019-03-01T06:38:03.914Z,9.85
2019-03-01T06:39:03.677Z,9.85
2019-03-01T06:40:03.610Z,9.83
2019-03-01T06:41:03.525Z,9.95
2019-03-01T06:42:03.426Z,9.81
2019-03-01T06:43:03.340Z,9.93
2019-03-01T06:44:03.260Z,9.93
2019-03-01T06:45:03.380Z,9.93
2019-03-01T06:46:03.115Z,9.89
2019-03-01T06:47:03.012Z,9.85
2019-03-01T06:48:02.921Z,9.83
2019-03-01T06:49:02.970Z,9.83
2019-03-01T06:50:02.767Z,9.88
2019-03-01T06:51:02.776Z,9.83
2019-03-01T06:52:02.589Z,9.78
2019-03-01T06:53:02.520Z,9.81
2019-03-01T06:54:02.428Z,9.85
2019-03-01T06:55:02.471Z,9.83
2019-03-01T06:56:02.957Z,9.81
2019-03-01T06:57:02.250Z,9.95
2019-03-01T06:58:02.090Z,9.91
2019-03-01T06:59:02.050Z,9.81
2019-03-01T07:00:01.933Z,9.83
2019-03-01T07:01:01.860Z,9.83
2019-03-01T07:02:02.883Z,9.83
2019-03-01T07:03:01.769Z,9.86
2019-03-01T07:04:01.579Z,9.85
2019-03-01T07:05:02.532Z,9.89
2019-03-01T07:06:03.524Z,9.81
2019-03-01T07:07:01.445Z,9.83
2019-03-01T07:08:01.244Z,9.85
2019-03-01T07:09:01.200Z,9.81
2019-03-01T07:10:01.092Z,9.83
2019-03-01T07:11:01.116Z,9.81
2019-03-01T07:12:00.912Z,9.83
2019-03-01T07:13:00.870Z,9.78
2019-03-01T07:14:00.744Z,9.86
2019-03-01T07:15:00.709Z,9.85
2019-03-01T07:16:00.574Z,9.86
2019-03-01T07:17:00.692Z,9.80
2019-03-01T07:18:00.410Z,9.81
2019-03-01T07:19:00.501Z,9.93
2019-03-01T07:20:00.312Z,9.81
2019-03-01T07:21:00.309Z,9.89
2019-03-01T07:22:00.070Z,9.93
2019-03-01T07:23:00.121Z,9.86
2019-03-01T07:23:59.946Z,9.81
2019-03-01T07:24:59.908Z,9.86
2019-03-01T07:25:59.741Z,9.93
2019-03-01T07:26:59.681Z,9.88
2019-03-01T07:27:59.569Z,9.92
2019-03-01T07:29:00.515Z,9.93
2019-03-01T07:29:59.417Z,9.86
2019-03-01T07:30:59.350Z,9.88
2019-03-01T07:31:59.235Z,9.91
2019-03-01T07:32:59.157Z,9.95
2019-03-01T07:33:59.166Z,10.01
2019-03-01T07:34:59.014Z,10.01
2019-03-01T07:35:58.900Z,9.96
2019-03-01T07:36:58.981Z,10.02
2019-03-01T07:37:58.736Z,10.01
2019-03-01T07:38:58.653Z,9.99
2019-03-01T07:39:58.577Z,9.93
2019-03-01T07:40:58.493Z,9.93
2019-03-01T07:41:58.398Z,9.96
2019-03-01T07:42:58.407Z,9.98
2019-03-01T07:43:58.229Z,9.93
2019-03-01T07:44:58.215Z,9.98
2019-03-01T07:45:58.078Z,9.93
2019-03-01T07:46:58.022Z,9.96
2019-03-01T07:47:57.897Z,10.01
2019-03-01T07:48:57.834Z,9.92
2019-03-01T07:49:57.739Z,9.95
2019-03-01T07:50:57.879Z,9.91
2019-03-01T07:51:57.563Z,9.92
2019-03-01T07:53:00.163Z,9.93
2019-03-01T07:53:57.459Z,9.88
2019-03-01T07:54:57.312Z,9.91
2019-03-01T07:55:57.251Z,9.91
2019-03-01T07:56:57.289Z,9.83
2019-03-01T07:57:57.063Z,9.92
2019-03-01T07:58:57.468Z,9.92
2019-03-01T07:59:56.900Z,9.86
2019-03-01T08:00:56.820Z,9.83
2019-03-01T08:01:56.732Z,9.89
2019-03-01T08:02:56.647Z,9.89
2019-03-01T08:03:56.557Z,9.88
2019-03-01T08:04:56.473Z,9.80
2019-03-01T08:05:56.427Z,9.80
2019-03-01T08:06:56.310Z,9.80
2019-03-01T08:07:59.662Z,9.80
2019-03-01T08:08:56.144Z,9.85
2019-03-01T08:09:56.054Z,9.80
2019-03-01T08:10:56.433Z,9.86
2019-03-01T08:11:55.886Z,9.78
2019-03-01T08:12:55.803Z,9.81
2019-03-01T08:13:55.732Z,9.83
2019-03-01T08:14:55.641Z,9.81
2019-03-01T08:15:55.609Z,9.81
2019-03-01T08:16:56.076Z,9.85
2019-03-01T08:17:55.386Z,9.83
2019-03-01T08:18:55.312Z,9.78
2019-03-01T08:19:58.535Z,9.81
2019-03-01T08:20:55.170Z,9.85
2019-03-01T08:21:55.059Z,9.85
2019-03-01T08:22:56.850Z,9.86
2019-03-01T08:23:54.885Z,9.93
2019-03-01T08:24:55.001Z,9.88
2019-03-01T08:25:55.607Z,9.91
2019-03-01T08:26:56.957Z,9.88
2019-03-01T08:27:54.555Z,9.93
2019-03-01T08:28:58.566Z,9.89
2019-03-01T08:29:54.417Z,9.93
2019-03-01T08:30:54.317Z,9.88
2019-03-01T08:31:55.921Z,9.91
2019-03-01T08:32:54.235Z,9.81
2019-03-01T08:33:54.110Z,9.80
2019-03-01T08:34:54.687Z,9.78
2019-03-01T08:35:53.895Z,9.74
2019-03-01T08:36:53.792Z,9.70
2019-03-01T08:37:54.360Z,9.71
2019-03-01T08:38:53.628Z,9.74
2019-03-01T08:39:53.546Z,9.63
2019-03-01T08:40:54.527Z,9.60
2019-03-01T08:41:53.443Z,9.58
2019-03-01T08:42:53.298Z,9.56
2019-03-01T08:43:53.214Z,9.42
2019-03-01T08:44:54.664Z,9.58
2019-03-01T08:45:53.093Z,9.55
2019-03-01T08:46:52.957Z,9.48
2019-03-01T08:47:55.430Z,9.48
2019-03-01T08:48:52.905Z,9.38
2019-03-01T08:49:52.709Z,9.42
2019-03-01T08:50:52.639Z,9.40
2019-03-01T08:51:52.926Z,9.35
2019-03-01T08:52:52.501Z,9.30
2019-03-01T08:53:52.373Z,9.31
2019-03-01T08:54:52.400Z,9.30
2019-03-01T08:55:52.307Z,9.20
2019-03-01T08:56:52.390Z,9.32
2019-03-01T08:57:52.039Z,9.26
2019-03-01T08:58:51.954Z,9.26
2019-03-01T08:59:51.875Z,9.26
2019-03-01T09:00:59.283Z,9.19
2019-03-01T09:01:51.718Z,9.17
2019-03-01T09:02:51.624Z,9.22
2019-03-01T09:03:51.532Z,9.20
2019-03-01T09:04:51.458Z,9.19
2019-03-01T09:05:51.368Z,9.17
2019-03-01T09:06:51.311Z,9.12
2019-03-01T09:07:51.202Z,9.15
2019-03-01T09:08:51.173Z,9.06
2019-03-01T09:09:53.736Z,9.13
2019-03-01T09:10:50.980Z,9.08
2019-03-01T09:11:50.880Z,9.08
2019-03-01T09:12:50.783Z,9.08
2019-03-01T09:13:50.710Z,9.10
2019-03-01T09:14:50.612Z,9.19
2019-03-01T09:15:52.550Z,9.06
2019-03-01T09:16:50.480Z,9.10
2019-03-01T09:17:50.362Z,9.17
2019-03-01T09:18:50.958Z,9.10
2019-03-01T09:19:50.207Z,9.17
2019-03-01T09:20:52.177Z,9.19
2019-03-01T09:21:51.010Z,9.27
2019-03-01T09:22:50.045Z,9.44
2019-03-01T09:23:52.274Z,9.60
2019-03-01T09:24:49.768Z,9.59
2019-03-01T09:25:49.962Z,9.65
2019-03-01T09:26:51.645Z,9.73
2019-03-01T09:27:49.521Z,9.74
2019-03-01T09:28:49.470Z,9.78
2019-03-01T09:29:49.350Z,9.65
2019-03-01T09:30:49.269Z,9.52
2019-03-01T09:31:50.814Z,9.37
2019-03-01T09:32:49.099Z,9.20
2019-03-01T09:33:49.016Z,9.32
2019-03-01T09:34:48.996Z,9.27
2019-03-01T09:35:50.032Z,9.15
2019-03-01T09:36:51.480Z,9.15
2019-03-01T09:37:48.676Z,9.13
2019-03-01T09:38:48.591Z,9.10
2019-03-01T09:39:50.428Z,9.10
2019-03-01T09:40:48.426Z,8.98
2019-03-01T09:41:48.356Z,8.96
2019-03-01T09:42:51.344Z,8.94
2019-03-01T09:43:48.171Z,8.88
2019-03-01T09:44:48.414Z,8.88
2019-03-01T09:45:48.735Z,8.79
2019-03-01T09:46:47.928Z,8.83
2019-03-01T09:47:47.835Z,8.70
2019-03-01T09:48:49.471Z,8.79
2019-03-01T09:49:47.670Z,8.79
2019-03-01T09:50:47.591Z,8.78
2019-03-01T09:51:49.899Z,8.82
2019-03-01T09:52:47.419Z,8.80
2019-03-01T09:53:47.541Z,8.93
2019-03-01T09:54:47.251Z,8.94
2019-03-01T09:55:47.161Z,8.93
2019-03-01T09:56:50.611Z,8.97
2019-03-01T09:57:46.995Z,8.86
2019-03-01T09:58:47.038Z,8.83
2019-03-01T09:59:46.874Z,8.89
2019-03-01T10:00:55.909Z,8.93
2019-03-01T10:01:46.682Z,8.98
2019-03-01T10:02:46.631Z,8.97
2019-03-01T10:03:46.485Z,8.91
2019-03-01T10:04:46.403Z,8.93
2019-03-01T10:05:46.347Z,8.93
2019-03-01T10:06:46.249Z,8.82
2019-03-01T10:07:46.152Z,8.94
2019-03-01T10:08:46.172Z,8.94
2019-03-01T10:09:45.992Z,9.15
2019-03-01T10:10:45.972Z,9.13
2019-03-01T10:11:45.832Z,9.15
2019-03-01T10:12:45.904Z,9.04
2019-03-01T10:13:45.643Z,9.24
2019-03-01T10:14:45.571Z,9.26
2019-03-01T10:15:45.483Z,9.13
2019-03-01T10:16:45.395Z,9.24
2019-03-01T10:17:45.322Z,9.26
2019-03-01T10:18:52.856Z,9.32
2019-03-01T10:19:45.140Z,9.15
2019-03-01T10:20:45.141Z,9.10
2019-03-01T10:21:44.971Z,9.13
2019-03-01T10:22:44.912Z,9.12
2019-03-01T10:23:44.803Z,9.08
2019-03-01T10:24:44.729Z,9.03
2019-03-01T10:25:44.638Z,9.08
2019-03-01T10:26:44.561Z,9.04
2019-03-01T10:27:44.482Z,8.94
2019-03-01T10:28:44.389Z,9.01
2019-03-01T10:29:44.323Z,8.89
2019-03-01T10:30:44.216Z,8.91
2019-03-01T10:31:44.159Z,8.93
2019-03-01T10:32:44.065Z,8.93
2019-03-01T10:33:44.019Z,8.88
2019-03-01T10:34:43.898Z,8.94
2019-03-01T10:35:43.797Z,8.94
2019-03-01T10:36:43.719Z,9.00
2019-03-01T10:37:43.658Z,8.94
2019-03-01T10:38:43.543Z,9.15
2019-03-01T10:39:43.467Z,9.00
2019-03-01T10:40:43.376Z,9.03
2019-03-01T10:41:43.298Z,9.03
2019-03-01T10:42:43.229Z,9.00
2019-03-01T10:43:43.125Z,9.01
2019-03-01T10:44:43.042Z,9.01
2019-03-01T10:45:42.971Z,8.96
2019-03-01T10:46:42.878Z,8.93
2019-03-01T10:47:42.801Z,8.94
2019-03-01T10:48:42.712Z,8.88
2019-03-01T10:49:42.620Z,8.96
2019-03-01T10:50:42.535Z,8.91
2019-03-01T10:51:42.467Z,8.94
2019-03-01T10:52:42.384Z,8.93
2019-03-01T10:53:42.283Z,8.96
2019-03-01T10:54:42.230Z,8.93
2019-03-01T10:55:42.118Z,8.93
2019-03-01T10:56:42.031Z,9.13
2019-03-01T10:57:41.969Z,9.00
2019-03-01T10:58:41.863Z,9.06
2019-03-01T10:59:41.781Z,9.00
2019-03-01T11:00:41.701Z,8.97
2019-03-01T11:01:41.616Z,8.94
2019-03-01T11:02:41.539Z,9.00
2019-03-01T11:03:41.455Z,9.00
2019-03-01T11:04:41.363Z,9.10
2019-03-01T11:05:41.276Z,9.16
2019-03-01T11:06:41.196Z,9.08
2019-03-01T11:07:41.122Z,9.16
2019-03-01T11:08:41.028Z,9.12
2019-03-01T11:09:40.947Z,9.04
2019-03-01T11:10:40.857Z,9.12
2019-03-01T11:11:41.317Z,9.10
2019-03-01T11:12:40.710Z,9.30
2019-03-01T11:13:40.604Z,9.23
2019-03-01T11:14:40.520Z,9.26
2019-03-01T11:15:40.479Z,9.23
2019-03-01T11:16:40.356Z,9.24
2019-03-01T11:17:40.283Z,9.27
2019-03-01T11:18:40.293Z,9.22
2019-03-01T11:19:40.101Z,9.32
2019-03-01T11:20:40.018Z,9.24
2019-03-01T11:21:39.994Z,9.23
2019-03-01T11:22:39.862Z,9.23
2019-03-01T11:23:39.768Z,9.17
2019-03-01T11:24:39.703Z,9.27
2019-03-01T11:25:39.597Z,9.26
2019-03-01T11:26:39.514Z,9.30
2019-03-01T11:27:39.450Z,9.30
2019-03-01T11:28:39.347Z,9.30
2019-03-01T11:29:39.268Z,9.37
2019-03-01T11:30:39.186Z,9.40
2019-03-01T11:31:39.098Z,9.44
2019-03-01T11:32:39.030Z,9.41
2019-03-01T11:33:38.930Z,9.38
2019-03-01T11:34:38.850Z,9.38
2019-03-01T11:35:38.762Z,9.38
2019-03-01T11:36:38.684Z,9.38
2019-03-01T11:37:38.610Z,9.35
2019-03-01T11:38:38.514Z,9.41
2019-03-01T11:39:38.425Z,9.34
2019-03-01T11:40:38.350Z,9.38
2019-03-01T11:41:38.265Z,9.38
2019-03-01T11:42:38.235Z,9.41
2019-03-01T11:43:38.090Z,9.38
2019-03-01T11:44:38.017Z,9.27
2019-03-01T11:45:37.931Z,9.23
2019-03-01T11:46:37.842Z,9.27
2019-03-01T11:47:37.758Z,9.20
2019-03-01T11:48:37.691Z,9.26
2019-03-01T11:49:37.589Z,9.26
2019-03-01T11:50:37.521Z,9.31
2019-03-01T11:51:37.550Z,9.31
2019-03-01T11:52:37.335Z,9.32
2019-03-01T11:53:37.369Z,9.23
2019-03-01T11:54:37.168Z,9.27
2019-03-01T11:55:37.090Z,9.26
2019-03-01T11:56:37.152Z,9.27
2019-03-01T11:57:36.916Z,9.24
2019-03-01T11:58:36.853Z,9.30
2019-03-01T11:59:36.969Z,9.26
2019-03-01T12:00:36.667Z,9.31
2019-03-01T12:01:36.584Z,9.22
2019-03-01T12:02:36.578Z,9.23
2019-03-01T12:03:36.428Z,9.23
2019-03-01T12:04:36.356Z,9.34
2019-03-01T12:05:36.392Z,9.19
2019-03-01T12:06:36.164Z,9.23
2019-03-01T12:07:36.200Z,9.27
2019-03-01T12:08:36.010Z,9.26
2019-03-01T12:09:36.010Z,9.27
2019-03-01T12:10:35.836Z,9.24
2019-03-01T12:11:35.746Z,9.30
2019-03-01T12:12:35.826Z,9.20
2019-03-01T12:13:35.591Z,9.20
2019-03-01T12:14:35.493Z,9.16
2019-03-01T12:15:35.434Z,9.12
2019-03-01T12:16:35.325Z,9.30
2019-03-01T12:17:35.454Z,9.34
2019-03-01T12:18:35.173Z,9.23
2019-03-01T12:19:35.255Z,9.27
2019-03-01T12:20:34.998Z,9.26
2019-03-01T12:21:35.064Z,9.17
2019-03-01T12:22:34.824Z,9.24
2019-03-01T12:23:34.905Z,9.23
2019-03-01T12:24:36.744Z,9.22
2019-03-01T12:25:34.684Z,9.27
2019-03-01T12:26:34.488Z,9.16
2019-03-01T12:27:34.491Z,9.30
2019-03-01T12:28:34.335Z,9.30
2019-03-01T12:29:34.302Z,9.19
2019-03-01T12:30:34.152Z,9.19
2019-03-01T12:31:34.107Z,9.16
2019-03-01T12:32:33.989Z,9.17
2019-03-01T12:33:33.946Z,9.24
2019-03-01T12:34:33.820Z,9.30
2019-03-01T12:35:33.737Z,9.40
2019-03-01T12:36:33.663Z,-40.00
2019-03-01T12:37:33.564Z,9.34
2019-03-01T12:38:33.493Z,9.42
2019-03-01T12:39:33.487Z,9.38
2019-03-01T12:40:33.314Z,9.42
2019-03-01T12:41:33.228Z,-40.00
2019-03-01T12:42:33.199Z,9.34
2019-03-01T12:43:33.074Z,-40.00
2019-03-01T12:44:32.976Z,-40.00
2019-03-01T12:45:32.911Z,-40.00
2019-03-01T12:46:32.808Z,-40.00
2019-03-01T12:47:32.739Z,-40.00
2019-03-01T12:48:32.649Z,-40.00
2019-03-01T12:49:32.586Z,-40.00
2019-03-01T12:50:32.474Z,-40.00
2019-03-01T12:51:32.444Z,-40.00
2019-03-01T12:52:32.303Z,-40.00
2019-03-01T12:53:32.239Z,-40.00
2019-03-01T12:54:32.134Z,-40.00
2019-03-01T12:55:32.061Z,-40.00
2019-03-01T12:56:31.967Z,-40.00
2019-03-01T12:57:31.885Z,8.71
2019-03-01T12:58:31.833Z,8.58
2019-03-01T12:59:31.713Z,8.63
2019-03-01T13:00:31.631Z,8.57
2019-03-01T13:01:31.552Z,8.61
2019-03-01T13:02:31.459Z,8.58
2019-03-01T13:03:31.396Z,8.52
2019-03-01T13:04:31.299Z,8.47
2019-03-01T13:05:31.212Z,8.42
2019-03-01T13:06:31.122Z,8.29
2019-03-01T13:07:31.055Z,8.25
2019-03-01T13:08:30.985Z,8.22
2019-03-01T13:09:30.877Z,8.32
2019-03-01T13:10:30.785Z,8.14